sensor_id;sensor_type;location;lat;lon;timestamp;P1;durP1;ratioP1;P2;durP2;ratioP2
52104;SDS011;38103;42.776;23.112;2023-05-07T00:00:52;19.23;;;10.32;;
52104;SDS011;38103;42.776;23.112;2023-05-07T00:03:17;17.27;;;10.70;;
52104;SDS011;38103;42.776;23.112;2023-05-07T00:05:43;17.83;;;10.75;;
52104;SDS011;38103;42.776;23.112;2023-05-07T00:08:09;20.30;;;9.45;;
52104;SDS011;38103;42.776;23.112;2023-05-07T00:10:35;16.95;;;9.38;;
52104;SDS011;38103;42.776;23.112;2023-05-07T00:13:00;17.35;;;9.60;;
52104;SDS011;38103;42.776;23.112;2023-05-07T00:15:25;17.08;;;9.48;;
52104;SDS011;38103;42.776;23.112;2023-05-07T00:17:51;17.70;;;9.68;;
52104;SDS011;38103;42.776;23.112;2023-05-07T00:20:16;18.23;;;9.70;;
52104;SDS011;38103;42.776;23.112;2023-05-07T00:22:42;18.27;;;9.18;;
52104;SDS011;38103;42.776;23.112;2023-05-07T00:25:07;19.40;;;9.07;;
52104;SDS011;38103;42.776;23.112;2023-05-07T00:27:33;19.00;;;9.68;;
52104;SDS011;38103;42.776;23.112;2023-05-07T00:29:58;15.68;;;9.40;;
52104;SDS011;38103;42.776;23.112;2023-05-07T00:32:23;16.45;;;9.13;;
52104;SDS011;38103;42.776;23.112;2023-05-07T00:34:49;17.02;;;9.48;;
52104;SDS011;38103;42.776;23.112;2023-05-07T00:37:15;21.10;;;9.68;;
52104;SDS011;38103;42.776;23.112;2023-05-07T00:39:41;16.02;;;9.05;;
52104;SDS011;38103;42.776;23.112;2023-05-07T00:42:06;19.50;;;8.93;;
52104;SDS011;38103;42.776;23.112;2023-05-07T00:44:33;17.55;;;9.35;;
52104;SDS011;38103;42.776;23.112;2023-05-07T00:46:58;16.60;;;9.30;;
52104;SDS011;38103;42.776;23.112;2023-05-07T00:49:32;18.42;;;9.80;;
52104;SDS011;38103;42.776;23.112;2023-05-07T00:52:03;19.77;;;9.98;;
52104;SDS011;38103;42.776;23.112;2023-05-07T00:54:30;16.70;;;9.50;;
52104;SDS011;38103;42.776;23.112;2023-05-07T00:56:56;15.07;;;8.55;;
52104;SDS011;38103;42.776;23.112;2023-05-07T00:59:21;17.58;;;9.52;;
52104;SDS011;38103;42.776;23.112;2023-05-07T01:01:47;18.08;;;9.50;;
52104;SDS011;38103;42.776;23.112;2023-05-07T01:04:12;19.58;;;9.98;;
52104;SDS011;38103;42.776;23.112;2023-05-07T01:06:37;18.77;;;10.55;;
52104;SDS011;38103;42.776;23.112;2023-05-07T01:09:03;16.10;;;9.93;;
52104;SDS011;38103;42.776;23.112;2023-05-07T01:11:29;18.55;;;9.93;;
52104;SDS011;38103;42.776;23.112;2023-05-07T01:13:55;16.38;;;9.68;;
52104;SDS011;38103;42.776;23.112;2023-05-07T01:16:21;16.58;;;9.88;;
52104;SDS011;38103;42.776;23.112;2023-05-07T01:18:47;21.08;;;9.85;;
52104;SDS011;38103;42.776;23.112;2023-05-07T01:21:14;17.27;;;9.43;;
52104;SDS011;38103;42.776;23.112;2023-05-07T01:23:41;16.42;;;9.57;;
52104;SDS011;38103;42.776;23.112;2023-05-07T01:26:07;19.98;;;10.60;;
52104;SDS011;38103;42.776;23.112;2023-05-07T01:28:32;16.25;;;9.63;;
52104;SDS011;38103;42.776;23.112;2023-05-07T01:31:01;17.75;;;9.43;;
52104;SDS011;38103;42.776;23.112;2023-05-07T01:33:29;15.60;;;8.25;;
52104;SDS011;38103;42.776;23.112;2023-05-07T01:35:58;17.45;;;8.80;;
52104;SDS011;38103;42.776;23.112;2023-05-07T01:38:28;17.98;;;10.05;;
52104;SDS011;38103;42.776;23.112;2023-05-07T01:40:55;21.52;;;10.68;;
52104;SDS011;38103;42.776;23.112;2023-05-07T01:43:20;17.38;;;9.07;;
52104;SDS011;38103;42.776;23.112;2023-05-07T01:45:47;17.38;;;9.45;;
52104;SDS011;38103;42.776;23.112;2023-05-07T01:48:14;20.73;;;10.38;;
52104;SDS011;38103;42.776;23.112;2023-05-07T01:50:41;19.40;;;10.93;;
52104;SDS011;38103;42.776;23.112;2023-05-07T01:53:06;18.95;;;10.40;;
52104;SDS011;38103;42.776;23.112;2023-05-07T01:55:32;23.98;;;11.45;;
52104;SDS011;38103;42.776;23.112;2023-05-07T01:57:57;22.00;;;12.23;;
52104;SDS011;38103;42.776;23.112;2023-05-07T02:00:23;22.30;;;11.90;;
52104;SDS011;38103;42.776;23.112;2023-05-07T02:02:48;20.95;;;12.27;;
52104;SDS011;38103;42.776;23.112;2023-05-07T02:05:13;19.10;;;12.35;;
52104;SDS011;38103;42.776;23.112;2023-05-07T02:07:39;20.65;;;13.10;;
52104;SDS011;38103;42.776;23.112;2023-05-07T02:10:04;27.73;;;13.48;;
52104;SDS011;38103;42.776;23.112;2023-05-07T02:12:31;24.02;;;13.10;;
52104;SDS011;38103;42.776;23.112;2023-05-07T02:14:56;19.42;;;10.90;;
52104;SDS011;38103;42.776;23.112;2023-05-07T02:17:21;20.27;;;11.68;;
52104;SDS011;38103;42.776;23.112;2023-05-07T02:19:47;17.50;;;10.02;;
52104;SDS011;38103;42.776;23.112;2023-05-07T02:22:12;19.50;;;10.70;;
52104;SDS011;38103;42.776;23.112;2023-05-07T02:24:37;19.45;;;11.70;;
52104;SDS011;38103;42.776;23.112;2023-05-07T02:27:03;19.67;;;11.13;;
52104;SDS011;38103;42.776;23.112;2023-05-07T02:29:29;18.77;;;10.98;;
52104;SDS011;38103;42.776;23.112;2023-05-07T02:31:54;20.58;;;11.80;;
52104;SDS011;38103;42.776;23.112;2023-05-07T02:34:20;23.33;;;11.35;;
52104;SDS011;38103;42.776;23.112;2023-05-07T02:36:46;20.30;;;11.65;;
52104;SDS011;38103;42.776;23.112;2023-05-07T02:39:12;22.05;;;12.10;;
52104;SDS011;38103;42.776;23.112;2023-05-07T02:41:37;21.90;;;12.43;;
52104;SDS011;38103;42.776;23.112;2023-05-07T02:44:03;20.60;;;12.50;;
52104;SDS011;38103;42.776;23.112;2023-05-07T02:46:28;22.05;;;12.88;;
52104;SDS011;38103;42.776;23.112;2023-05-07T02:48:54;20.15;;;11.90;;
52104;SDS011;38103;42.776;23.112;2023-05-07T02:51:20;22.65;;;13.18;;
52104;SDS011;38103;42.776;23.112;2023-05-07T02:53:47;21.83;;;13.02;;
52104;SDS011;38103;42.776;23.112;2023-05-07T02:56:12;22.63;;;13.02;;
52104;SDS011;38103;42.776;23.112;2023-05-07T02:58:38;22.23;;;13.25;;
52104;SDS011;38103;42.776;23.112;2023-05-07T03:01:09;20.33;;;12.35;;
52104;SDS011;38103;42.776;23.112;2023-05-07T03:03:35;20.38;;;12.85;;
52104;SDS011;38103;42.776;23.112;2023-05-07T03:06:00;21.73;;;13.50;;
52104;SDS011;38103;42.776;23.112;2023-05-07T03:08:26;21.98;;;13.00;;
52104;SDS011;38103;42.776;23.112;2023-05-07T03:10:51;23.80;;;12.77;;
52104;SDS011;38103;42.776;23.112;2023-05-07T03:13:16;20.35;;;12.70;;
52104;SDS011;38103;42.776;23.112;2023-05-07T03:15:42;22.75;;;13.60;;
52104;SDS011;38103;42.776;23.112;2023-05-07T03:18:08;21.50;;;12.13;;
52104;SDS011;38103;42.776;23.112;2023-05-07T03:20:33;23.23;;;13.30;;
52104;SDS011;38103;42.776;23.112;2023-05-07T03:22:58;20.48;;;12.48;;
52104;SDS011;38103;42.776;23.112;2023-05-07T03:25:24;20.63;;;12.13;;
52104;SDS011;38103;42.776;23.112;2023-05-07T03:27:49;23.65;;;13.52;;
52104;SDS011;38103;42.776;23.112;2023-05-07T03:30:15;21.70;;;13.75;;
52104;SDS011;38103;42.776;23.112;2023-05-07T03:32:40;24.20;;;14.43;;
52104;SDS011;38103;42.776;23.112;2023-05-07T03:35:06;23.30;;;14.73;;
52104;SDS011;38103;42.776;23.112;2023-05-07T03:37:32;25.08;;;14.63;;
52104;SDS011;38103;42.776;23.112;2023-05-07T03:39:58;24.88;;;14.40;;
52104;SDS011;38103;42.776;23.112;2023-05-07T03:42:23;22.88;;;13.90;;
52104;SDS011;38103;42.776;23.112;2023-05-07T03:44:48;21.70;;;14.25;;
52104;SDS011;38103;42.776;23.112;2023-05-07T03:47:14;22.30;;;14.13;;
52104;SDS011;38103;42.776;23.112;2023-05-07T03:49:39;20.13;;;12.77;;
52104;SDS011;38103;42.776;23.112;2023-05-07T03:52:05;23.30;;;12.38;;
52104;SDS011;38103;42.776;23.112;2023-05-07T03:54:31;19.83;;;12.30;;
52104;SDS011;38103;42.776;23.112;2023-05-07T03:56:56;21.23;;;12.35;;
52104;SDS011;38103;42.776;23.112;2023-05-07T03:59:22;21.92;;;13.57;;
52104;SDS011;38103;42.776;23.112;2023-05-07T04:01:47;27.88;;;14.18;;
52104;SDS011;38103;42.776;23.112;2023-05-07T04:04:13;24.98;;;13.20;;
52104;SDS011;38103;42.776;23.112;2023-05-07T04:06:39;25.40;;;13.75;;
52104;SDS011;38103;42.776;23.112;2023-05-07T04:09:05;25.02;;;13.57;;
52104;SDS011;38103;42.776;23.112;2023-05-07T04:11:30;20.98;;;13.40;;
52104;SDS011;38103;42.776;23.112;2023-05-07T04:13:55;22.05;;;12.75;;
52104;SDS011;38103;42.776;23.112;2023-05-07T04:16:21;20.42;;;13.07;;
52104;SDS011;38103;42.776;23.112;2023-05-07T04:18:46;19.00;;;11.70;;
52104;SDS011;38103;42.776;23.112;2023-05-07T04:21:18;19.55;;;11.68;;
52104;SDS011;38103;42.776;23.112;2023-05-07T04:23:45;22.55;;;11.32;;
52104;SDS011;38103;42.776;23.112;2023-05-07T04:26:14;21.10;;;11.40;;
52104;SDS011;38103;42.776;23.112;2023-05-07T04:28:40;17.83;;;10.40;;
52104;SDS011;38103;42.776;23.112;2023-05-07T04:31:05;18.25;;;11.02;;
52104;SDS011;38103;42.776;23.112;2023-05-07T04:33:31;17.75;;;10.30;;
52104;SDS011;38103;42.776;23.112;2023-05-07T04:35:58;18.63;;;11.10;;
52104;SDS011;38103;42.776;23.112;2023-05-07T04:38:27;19.73;;;11.48;;
52104;SDS011;38103;42.776;23.112;2023-05-07T04:40:56;16.90;;;10.40;;
52104;SDS011;38103;42.776;23.112;2023-05-07T04:43:22;23.85;;;10.65;;
52104;SDS011;38103;42.776;23.112;2023-05-07T04:45:50;20.73;;;10.60;;
52104;SDS011;38103;42.776;23.112;2023-05-07T04:48:16;19.00;;;9.57;;
52104;SDS011;38103;42.776;23.112;2023-05-07T04:50:44;15.27;;;9.35;;
52104;SDS011;38103;42.776;23.112;2023-05-07T04:53:11;16.02;;;8.98;;
52104;SDS011;38103;42.776;23.112;2023-05-07T04:55:37;18.73;;;9.35;;
52104;SDS011;38103;42.776;23.112;2023-05-07T04:58:02;19.48;;;9.93;;
52104;SDS011;38103;42.776;23.112;2023-05-07T05:00:28;19.38;;;10.30;;
52104;SDS011;38103;42.776;23.112;2023-05-07T05:02:53;16.90;;;9.18;;
52104;SDS011;38103;42.776;23.112;2023-05-07T05:05:18;19.80;;;10.75;;
52104;SDS011;38103;42.776;23.112;2023-05-07T05:07:44;15.75;;;10.13;;
52104;SDS011;38103;42.776;23.112;2023-05-07T05:10:09;18.88;;;11.05;;
52104;SDS011;38103;42.776;23.112;2023-05-07T05:12:35;16.98;;;10.20;;
52104;SDS011;38103;42.776;23.112;2023-05-07T05:15:00;19.27;;;11.77;;
52104;SDS011;38103;42.776;23.112;2023-05-07T05:17:25;23.73;;;11.40;;
52104;SDS011;38103;42.776;23.112;2023-05-07T05:19:51;19.40;;;11.02;;
52104;SDS011;38103;42.776;23.112;2023-05-07T05:22:16;19.38;;;10.68;;
52104;SDS011;38103;42.776;23.112;2023-05-07T05:24:41;17.98;;;10.75;;
52104;SDS011;38103;42.776;23.112;2023-05-07T05:27:07;20.20;;;11.95;;
52104;SDS011;38103;42.776;23.112;2023-05-07T05:29:32;19.75;;;11.93;;
52104;SDS011;38103;42.776;23.112;2023-05-07T05:31:58;20.45;;;11.90;;
52104;SDS011;38103;42.776;23.112;2023-05-07T05:34:23;20.48;;;12.52;;
52104;SDS011;38103;42.776;23.112;2023-05-07T05:36:48;23.05;;;11.70;;
52104;SDS011;38103;42.776;23.112;2023-05-07T05:39:14;19.95;;;11.48;;
52104;SDS011;38103;42.776;23.112;2023-05-07T05:41:39;26.77;;;12.55;;
52104;SDS011;38103;42.776;23.112;2023-05-07T05:44:05;19.63;;;11.60;;
52104;SDS011;38103;42.776;23.112;2023-05-07T05:46:30;20.35;;;12.02;;
52104;SDS011;38103;42.776;23.112;2023-05-07T05:48:56;19.15;;;11.30;;
52104;SDS011;38103;42.776;23.112;2023-05-07T05:51:22;18.63;;;11.18;;
52104;SDS011;38103;42.776;23.112;2023-05-07T05:53:48;21.38;;;11.43;;
52104;SDS011;38103;42.776;23.112;2023-05-07T05:56:13;22.25;;;11.88;;
52104;SDS011;38103;42.776;23.112;2023-05-07T05:58:39;21.33;;;12.75;;
52104;SDS011;38103;42.776;23.112;2023-05-07T06:01:04;17.58;;;11.18;;
52104;SDS011;38103;42.776;23.112;2023-05-07T06:03:30;19.10;;;12.25;;
52104;SDS011;38103;42.776;23.112;2023-05-07T06:05:57;19.95;;;12.80;;
52104;SDS011;38103;42.776;23.112;2023-05-07T06:08:22;18.15;;;11.65;;
52104;SDS011;38103;42.776;23.112;2023-05-07T06:10:47;17.73;;;11.48;;
52104;SDS011;38103;42.776;23.112;2023-05-07T06:13:13;18.50;;;11.90;;
52104;SDS011;38103;42.776;23.112;2023-05-07T06:15:38;21.45;;;12.27;;
52104;SDS011;38103;42.776;23.112;2023-05-07T06:18:04;20.08;;;12.23;;
52104;SDS011;38103;42.776;23.112;2023-05-07T06:20:29;19.08;;;11.80;;
52104;SDS011;38103;42.776;23.112;2023-05-07T06:22:54;19.52;;;11.48;;
52104;SDS011;38103;42.776;23.112;2023-05-07T06:25:20;18.38;;;11.57;;
52104;SDS011;38103;42.776;23.112;2023-05-07T06:27:45;17.98;;;10.98;;
52104;SDS011;38103;42.776;23.112;2023-05-07T06:30:11;21.85;;;11.77;;
52104;SDS011;38103;42.776;23.112;2023-05-07T06:32:36;19.73;;;11.07;;
52104;SDS011;38103;42.776;23.112;2023-05-07T06:35:02;19.05;;;10.90;;
52104;SDS011;38103;42.776;23.112;2023-05-07T06:37:27;22.88;;;11.57;;
52104;SDS011;38103;42.776;23.112;2023-05-07T06:39:53;19.52;;;10.95;;
52104;SDS011;38103;42.776;23.112;2023-05-07T06:42:18;21.83;;;11.20;;
52104;SDS011;38103;42.776;23.112;2023-05-07T06:44:43;30.25;;;11.45;;
52104;SDS011;38103;42.776;23.112;2023-05-07T06:47:09;19.27;;;10.75;;
52104;SDS011;38103;42.776;23.112;2023-05-07T06:49:34;20.15;;;10.95;;
52104;SDS011;38103;42.776;23.112;2023-05-07T06:52:00;23.33;;;11.07;;
52104;SDS011;38103;42.776;23.112;2023-05-07T06:54:25;17.88;;;10.60;;
52104;SDS011;38103;42.776;23.112;2023-05-07T06:56:50;17.88;;;11.30;;
52104;SDS011;38103;42.776;23.112;2023-05-07T06:59:16;16.52;;;10.13;;
52104;SDS011;38103;42.776;23.112;2023-05-07T07:01:41;17.98;;;9.77;;
52104;SDS011;38103;42.776;23.112;2023-05-07T07:04:07;18.40;;;9.75;;
52104;SDS011;38103;42.776;23.112;2023-05-07T07:06:32;19.83;;;10.40;;
52104;SDS011;38103;42.776;23.112;2023-05-07T07:08:58;23.88;;;10.20;;
52104;SDS011;38103;42.776;23.112;2023-05-07T07:11:24;18.05;;;9.52;;
52104;SDS011;38103;42.776;23.112;2023-05-07T07:13:50;16.83;;;8.98;;
52104;SDS011;38103;42.776;23.112;2023-05-07T07:16:15;16.60;;;9.20;;
52104;SDS011;38103;42.776;23.112;2023-05-07T07:18:41;19.73;;;9.70;;
52104;SDS011;38103;42.776;23.112;2023-05-07T07:21:06;19.13;;;9.52;;
52104;SDS011;38103;42.776;23.112;2023-05-07T07:23:32;16.98;;;9.20;;
52104;SDS011;38103;42.776;23.112;2023-05-07T07:25:57;22.13;;;9.85;;
52104;SDS011;38103;42.776;23.112;2023-05-07T07:28:23;16.52;;;9.20;;
52104;SDS011;38103;42.776;23.112;2023-05-07T07:30:48;20.20;;;10.05;;
52104;SDS011;38103;42.776;23.112;2023-05-07T07:33:14;20.85;;;10.07;;
52104;SDS011;38103;42.776;23.112;2023-05-07T07:35:40;16.92;;;9.63;;
52104;SDS011;38103;42.776;23.112;2023-05-07T07:38:05;19.42;;;9.55;;
52104;SDS011;38103;42.776;23.112;2023-05-07T07:40:31;15.68;;;10.23;;
52104;SDS011;38103;42.776;23.112;2023-05-07T07:42:56;18.48;;;9.57;;
52104;SDS011;38103;42.776;23.112;2023-05-07T07:45:22;17.00;;;9.48;;
52104;SDS011;38103;42.776;23.112;2023-05-07T07:47:47;15.90;;;9.57;;
52104;SDS011;38103;42.776;23.112;2023-05-07T07:50:13;17.40;;;8.70;;
52104;SDS011;38103;42.776;23.112;2023-05-07T07:52:38;17.73;;;8.38;;
52104;SDS011;38103;42.776;23.112;2023-05-07T07:55:04;15.43;;;9.02;;
52104;SDS011;38103;42.776;23.112;2023-05-07T07:57:30;16.52;;;8.13;;
52104;SDS011;38103;42.776;23.112;2023-05-07T07:59:55;15.95;;;8.77;;
52104;SDS011;38103;42.776;23.112;2023-05-07T08:02:21;15.13;;;8.20;;
52104;SDS011;38103;42.776;23.112;2023-05-07T08:04:46;16.08;;;7.82;;
52104;SDS011;38103;42.776;23.112;2023-05-07T08:07:12;18.38;;;7.32;;
52104;SDS011;38103;42.776;23.112;2023-05-07T08:09:39;16.40;;;7.93;;
52104;SDS011;38103;42.776;23.112;2023-05-07T08:12:05;13.90;;;7.35;;
52104;SDS011;38103;42.776;23.112;2023-05-07T08:14:31;13.10;;;7.30;;
52104;SDS011;38103;42.776;23.112;2023-05-07T08:16:56;18.05;;;9.48;;
52104;SDS011;38103;42.776;23.112;2023-05-07T08:19:22;15.88;;;7.05;;
52104;SDS011;38103;42.776;23.112;2023-05-07T08:21:47;29.65;;;10.10;;
52104;SDS011;38103;42.776;23.112;2023-05-07T08:24:16;14.50;;;6.55;;
52104;SDS011;38103;42.776;23.112;2023-05-07T08:26:42;44.35;;;11.88;;
52104;SDS011;38103;42.776;23.112;2023-05-07T08:29:08;13.00;;;6.18;;
52104;SDS011;38103;42.776;23.112;2023-05-07T08:31:34;14.55;;;6.80;;
52104;SDS011;38103;42.776;23.112;2023-05-07T08:33:59;12.80;;;6.35;;
52104;SDS011;38103;42.776;23.112;2023-05-07T08:36:25;12.38;;;6.15;;
52104;SDS011;38103;42.776;23.112;2023-05-07T08:38:51;12.75;;;6.60;;
52104;SDS011;38103;42.776;23.112;2023-05-07T08:41:18;13.90;;;6.47;;
52104;SDS011;38103;42.776;23.112;2023-05-07T08:43:47;16.30;;;6.65;;
52104;SDS011;38103;42.776;23.112;2023-05-07T08:46:17;12.87;;;6.10;;
52104;SDS011;38103;42.776;23.112;2023-05-07T08:48:48;11.82;;;5.80;;
52104;SDS011;38103;42.776;23.112;2023-05-07T08:51:18;13.73;;;6.03;;
52104;SDS011;38103;42.776;23.112;2023-05-07T08:53:46;14.32;;;6.07;;
52104;SDS011;38103;42.776;23.112;2023-05-07T08:56:13;12.85;;;6.05;;
52104;SDS011;38103;42.776;23.112;2023-05-07T08:58:40;13.82;;;6.22;;
52104;SDS011;38103;42.776;23.112;2023-05-07T09:01:09;12.75;;;6.00;;
52104;SDS011;38103;42.776;23.112;2023-05-07T09:03:37;12.57;;;5.80;;
52104;SDS011;38103;42.776;23.112;2023-05-07T09:06:04;11.75;;;5.30;;
52104;SDS011;38103;42.776;23.112;2023-05-07T09:08:31;11.07;;;5.20;;
52104;SDS011;38103;42.776;23.112;2023-05-07T09:10:58;12.18;;;5.30;;
52104;SDS011;38103;42.776;23.112;2023-05-07T09:13:23;17.45;;;5.25;;
52104;SDS011;38103;42.776;23.112;2023-05-07T09:15:49;13.77;;;5.75;;
52104;SDS011;38103;42.776;23.112;2023-05-07T09:18:15;11.43;;;4.85;;
52104;SDS011;38103;42.776;23.112;2023-05-07T09:20:40;15.15;;;5.40;;
52104;SDS011;38103;42.776;23.112;2023-05-07T09:23:06;13.43;;;5.15;;
52104;SDS011;38103;42.776;23.112;2023-05-07T09:25:32;14.35;;;4.88;;
52104;SDS011;38103;42.776;23.112;2023-05-07T09:28:00;11.55;;;4.93;;
52104;SDS011;38103;42.776;23.112;2023-05-07T09:30:29;13.80;;;4.75;;
52104;SDS011;38103;42.776;23.112;2023-05-07T09:32:56;11.60;;;4.95;;
52104;SDS011;38103;42.776;23.112;2023-05-07T09:35:23;13.50;;;4.95;;
52104;SDS011;38103;42.776;23.112;2023-05-07T09:37:52;12.25;;;4.95;;
52104;SDS011;38103;42.776;23.112;2023-05-07T09:40:22;12.50;;;5.32;;
52104;SDS011;38103;42.776;23.112;2023-05-07T09:42:48;12.68;;;5.60;;
52104;SDS011;38103;42.776;23.112;2023-05-07T09:45:15;13.90;;;5.22;;
52104;SDS011;38103;42.776;23.112;2023-05-07T09:47:42;12.32;;;4.80;;
52104;SDS011;38103;42.776;23.112;2023-05-07T09:50:10;11.65;;;5.03;;
52104;SDS011;38103;42.776;23.112;2023-05-07T09:52:38;10.70;;;5.10;;
52104;SDS011;38103;42.776;23.112;2023-05-07T09:55:05;14.10;;;5.35;;
52104;SDS011;38103;42.776;23.112;2023-05-07T09:57:32;11.80;;;4.90;;
52104;SDS011;38103;42.776;23.112;2023-05-07T09:59:59;12.13;;;4.93;;
52104;SDS011;38103;42.776;23.112;2023-05-07T10:02:27;15.95;;;5.47;;
52104;SDS011;38103;42.776;23.112;2023-05-07T10:04:55;11.63;;;4.88;;
52104;SDS011;38103;42.776;23.112;2023-05-07T10:07:23;10.77;;;4.70;;
52104;SDS011;38103;42.776;23.112;2023-05-07T10:09:50;10.75;;;4.63;;
52104;SDS011;38103;42.776;23.112;2023-05-07T10:12:16;11.88;;;4.78;;
52104;SDS011;38103;42.776;23.112;2023-05-07T10:14:43;11.80;;;5.22;;
52104;SDS011;38103;42.776;23.112;2023-05-07T10:17:09;13.32;;;5.18;;
52104;SDS011;38103;42.776;23.112;2023-05-07T10:19:36;10.05;;;4.50;;
52104;SDS011;38103;42.776;23.112;2023-05-07T10:22:05;11.95;;;4.22;;
52104;SDS011;38103;42.776;23.112;2023-05-07T10:24:32;10.18;;;4.32;;
52104;SDS011;38103;42.776;23.112;2023-05-07T10:26:59;11.00;;;4.53;;
52104;SDS011;38103;42.776;23.112;2023-05-07T10:34:29;11.55;;;4.30;;
52104;SDS011;38103;42.776;23.112;2023-05-07T10:37:00;10.90;;;4.45;;
52104;SDS011;38103;42.776;23.112;2023-05-07T10:39:26;12.43;;;4.10;;
52104;SDS011;38103;42.776;23.112;2023-05-07T10:41:52;9.35;;;3.80;;
52104;SDS011;38103;42.776;23.112;2023-05-07T10:44:27;11.18;;;4.20;;
52104;SDS011;38103;42.776;23.112;2023-05-07T10:47:03;12.25;;;4.20;;
52104;SDS011;38103;42.776;23.112;2023-05-07T10:49:36;12.00;;;3.90;;
52104;SDS011;38103;42.776;23.112;2023-05-07T10:52:22;11.23;;;4.28;;
52104;SDS011;38103;42.776;23.112;2023-05-07T11:05:26;30.52;;;5.30;;
52104;SDS011;38103;42.776;23.112;2023-05-07T11:08:00;11.68;;;4.25;;
52104;SDS011;38103;42.776;23.112;2023-05-07T11:11:12;9.23;;;3.78;;
52104;SDS011;38103;42.776;23.112;2023-05-07T11:13:14;10.43;;;4.07;;
52104;SDS011;38103;42.776;23.112;2023-05-07T11:15:40;10.90;;;4.07;;
52104;SDS011;38103;42.776;23.112;2023-05-07T11:18:16;10.35;;;3.50;;
52104;SDS011;38103;42.776;23.112;2023-05-07T11:26:02;11.30;;;3.83;;
52104;SDS011;38103;42.776;23.112;2023-05-07T11:28:36;10.18;;;4.18;;
52104;SDS011;38103;42.776;23.112;2023-05-07T11:31:03;8.80;;;3.63;;
52104;SDS011;38103;42.776;23.112;2023-05-07T11:33:32;11.18;;;3.95;;
52104;SDS011;38103;42.776;23.112;2023-05-07T11:35:59;10.13;;;3.80;;
52104;SDS011;38103;42.776;23.112;2023-05-07T11:38:25;11.75;;;3.78;;
52104;SDS011;38103;42.776;23.112;2023-05-07T11:40:55;12.23;;;3.78;;
52104;SDS011;38103;42.776;23.112;2023-05-07T11:43:21;9.52;;;3.90;;
52104;SDS011;38103;42.776;23.112;2023-05-07T11:45:47;10.88;;;3.70;;
52104;SDS011;38103;42.776;23.112;2023-05-07T11:48:13;10.65;;;3.95;;
52104;SDS011;38103;42.776;23.112;2023-05-07T11:53:26;10.77;;;4.13;;
52104;SDS011;38103;42.776;23.112;2023-05-07T11:55:55;10.10;;;3.83;;
52104;SDS011;38103;42.776;23.112;2023-05-07T11:58:21;9.23;;;3.90;;
52104;SDS011;38103;42.776;23.112;2023-05-07T12:00:51;10.80;;;3.83;;
52104;SDS011;38103;42.776;23.112;2023-05-07T12:03:18;10.73;;;3.75;;
52104;SDS011;38103;42.776;23.112;2023-05-07T12:05:44;10.23;;;4.10;;
52104;SDS011;38103;42.776;23.112;2023-05-07T12:08:19;12.32;;;4.00;;
52104;SDS011;38103;42.776;23.112;2023-05-07T12:10:47;10.63;;;3.88;;
52104;SDS011;38103;42.776;23.112;2023-05-07T12:13:26;9.93;;;3.83;;
52104;SDS011;38103;42.776;23.112;2023-05-07T12:15:51;10.70;;;3.80;;
52104;SDS011;38103;42.776;23.112;2023-05-07T12:18:20;9.60;;;3.83;;
52104;SDS011;38103;42.776;23.112;2023-05-07T12:20:47;12.05;;;4.28;;
52104;SDS011;38103;42.776;23.112;2023-05-07T12:23:13;12.07;;;3.85;;
52104;SDS011;38103;42.776;23.112;2023-05-07T12:25:39;9.65;;;3.50;;
52104;SDS011;38103;42.776;23.112;2023-05-07T12:28:18;13.43;;;4.03;;
52104;SDS011;38103;42.776;23.112;2023-05-07T12:30:44;9.23;;;3.70;;
52104;SDS011;38103;42.776;23.112;2023-05-07T12:33:12;8.70;;;3.80;;
52104;SDS011;38103;42.776;23.112;2023-05-07T12:35:42;12.57;;;4.30;;
52104;SDS011;38103;42.776;23.112;2023-05-07T12:38:11;9.30;;;4.03;;
52104;SDS011;38103;42.776;23.112;2023-05-07T12:40:42;11.73;;;4.22;;
52104;SDS011;38103;42.776;23.112;2023-05-07T12:43:42;10.68;;;3.83;;
52104;SDS011;38103;42.776;23.112;2023-05-07T12:46:02;10.27;;;3.70;;
52104;SDS011;38103;42.776;23.112;2023-05-07T12:48:29;14.02;;;4.05;;
52104;SDS011;38103;42.776;23.112;2023-05-07T12:50:58;9.65;;;4.07;;
52104;SDS011;38103;42.776;23.112;2023-05-07T12:53:25;9.13;;;3.83;;
52104;SDS011;38103;42.776;23.112;2023-05-07T12:55:52;8.93;;;3.60;;
52104;SDS011;38103;42.776;23.112;2023-05-07T12:58:26;9.60;;;4.00;;
52104;SDS011;38103;42.776;23.112;2023-05-07T13:00:58;8.85;;;3.58;;
52104;SDS011;38103;42.776;23.112;2023-05-07T13:03:29;9.27;;;3.45;;
52104;SDS011;38103;42.776;23.112;2023-05-07T13:05:57;9.32;;;3.58;;
52104;SDS011;38103;42.776;23.112;2023-05-07T13:08:30;9.30;;;3.72;;
52104;SDS011;38103;42.776;23.112;2023-05-07T13:11:01;11.63;;;3.50;;
52104;SDS011;38103;42.776;23.112;2023-05-07T13:13:29;11.13;;;3.78;;
52104;SDS011;38103;42.776;23.112;2023-05-07T13:15:55;9.88;;;3.65;;
52104;SDS011;38103;42.776;23.112;2023-05-07T13:18:20;9.65;;;3.42;;
52104;SDS011;38103;42.776;23.112;2023-05-07T13:20:46;9.00;;;3.72;;
52104;SDS011;38103;42.776;23.112;2023-05-07T13:23:11;11.48;;;3.88;;
52104;SDS011;38103;42.776;23.112;2023-05-07T13:25:37;10.73;;;3.78;;
52104;SDS011;38103;42.776;23.112;2023-05-07T13:28:02;9.27;;;3.70;;
52104;SDS011;38103;42.776;23.112;2023-05-07T13:30:28;10.45;;;4.03;;
52104;SDS011;38103;42.776;23.112;2023-05-07T13:32:55;37.67;;;5.80;;
52104;SDS011;38103;42.776;23.112;2023-05-07T13:35:20;11.35;;;4.28;;
52104;SDS011;38103;42.776;23.112;2023-05-07T13:37:46;10.45;;;3.85;;
52104;SDS011;38103;42.776;23.112;2023-05-07T13:40:13;9.93;;;3.72;;
52104;SDS011;38103;42.776;23.112;2023-05-07T13:42:38;9.38;;;3.83;;
52104;SDS011;38103;42.776;23.112;2023-05-07T13:45:04;9.15;;;3.78;;
52104;SDS011;38103;42.776;23.112;2023-05-07T13:47:30;10.68;;;3.70;;
52104;SDS011;38103;42.776;23.112;2023-05-07T13:49:55;9.07;;;3.47;;
52104;SDS011;38103;42.776;23.112;2023-05-07T13:52:21;12.57;;;4.13;;
52104;SDS011;38103;42.776;23.112;2023-05-07T13:54:46;10.02;;;3.95;;
52104;SDS011;38103;42.776;23.112;2023-05-07T13:57:12;9.60;;;3.90;;
52104;SDS011;38103;42.776;23.112;2023-05-07T13:59:37;11.40;;;4.00;;
52104;SDS011;38103;42.776;23.112;2023-05-07T14:02:02;9.73;;;3.90;;
52104;SDS011;38103;42.776;23.112;2023-05-07T14:04:28;10.25;;;4.03;;
52104;SDS011;38103;42.776;23.112;2023-05-07T14:06:53;10.85;;;3.78;;
52104;SDS011;38103;42.776;23.112;2023-05-07T14:09:19;12.07;;;4.25;;
52104;SDS011;38103;42.776;23.112;2023-05-07T14:11:44;11.80;;;4.13;;
52104;SDS011;38103;42.776;23.112;2023-05-07T14:14:11;11.30;;;3.90;;
52104;SDS011;38103;42.776;23.112;2023-05-07T14:16:36;12.57;;;4.25;;
52104;SDS011;38103;42.776;23.112;2023-05-07T14:19:02;11.35;;;4.28;;
52104;SDS011;38103;42.776;23.112;2023-05-07T14:21:27;9.45;;;3.95;;
52104;SDS011;38103;42.776;23.112;2023-05-07T14:23:52;11.02;;;4.32;;
52104;SDS011;38103;42.776;23.112;2023-05-07T14:26:18;8.85;;;4.03;;
52104;SDS011;38103;42.776;23.112;2023-05-07T14:28:44;10.75;;;4.13;;
52104;SDS011;38103;42.776;23.112;2023-05-07T14:31:11;9.65;;;3.90;;
52104;SDS011;38103;42.776;23.112;2023-05-07T14:33:37;9.02;;;3.97;;
52104;SDS011;38103;42.776;23.112;2023-05-07T14:36:02;11.15;;;3.90;;
52104;SDS011;38103;42.776;23.112;2023-05-07T14:38:28;10.57;;;4.13;;